sensor_id;sensor_type;location;lat;lon;timestamp;pressure;altitude;pressure_sealevel;temperature;humidity
39363;BME280;25088;43.238;23.110;2022-09-09T00:00:18;96440.78;;;24.12;62.14
39363;BME280;25088;43.238;23.110;2022-09-09T00:02:53;96446.69;;;24.11;60.80
39363;BME280;25088;43.238;23.110;2022-09-09T00:05:39;96446.47;;;24.04;63.33
39363;BME280;25088;43.238;23.110;2022-09-09T00:08:15;96452.34;;;23.90;64.53
39363;BME280;25088;43.238;23.110;2022-09-09T00:10:43;96437.84;;;23.63;64.57
39363;BME280;25088;43.238;23.110;2022-09-09T00:13:22;96431.94;;;23.65;65.03
39363;BME280;25088;43.238;23.110;2022-09-09T00:21:16;96414.84;;;22.83;68.65
39363;BME280;25088;43.238;23.110;2022-09-09T00:23:51;96426.53;;;22.97;66.02
39363;BME280;25088;43.238;23.110;2022-09-09T00:31:34;96426.63;;;23.09;67.11
39363;BME280;25088;43.238;23.110;2022-09-09T00:34:12;96414.69;;;23.09;67.67
39363;BME280;25088;43.238;23.110;2022-09-09T00:36:40;96412.97;;;23.16;66.87
39363;BME280;25088;43.238;23.110;2022-09-09T00:39:12;96411.84;;;23.17;66.09
39363;BME280;25088;43.238;23.110;2022-09-09T00:42:00;96410.72;;;23.31;63.44
39363;BME280;25088;43.238;23.110;2022-09-09T00:44:34;96415.13;;;23.32;62.71
39363;BME280;25088;43.238;23.110;2022-09-09T00:49:50;96406.34;;;23.42;63.94
39363;BME280;25088;43.238;23.110;2022-09-09T00:57:38;96407.16;;;23.09;66.85
39363;BME280;25088;43.238;23.110;2022-09-09T01:00:21;96408.41;;;23.12;64.56
39363;BME280;25088;43.238;23.110;2022-09-09T01:07:58;96415.28;;;23.14;65.51
39363;BME280;25088;43.238;23.110;2022-09-09T01:10:43;96396.97;;;23.13;63.78
39363;BME280;25088;43.238;23.110;2022-09-09T01:13:16;96406.53;;;23.25;63.72
39363;BME280;25088;43.238;23.110;2022-09-09T01:15:44;96412.97;;;23.16;65.22
39363;BME280;25088;43.238;23.110;2022-09-09T01:18:13;96407.75;;;22.94;65.07
39363;BME280;25088;43.238;23.110;2022-09-09T01:26:31;96413.38;;;22.77;64.95
39363;BME280;25088;43.238;23.110;2022-09-09T01:28:59;96416.44;;;22.63;65.41
39363;BME280;25088;43.238;23.110;2022-09-09T01:31:36;96422.00;;;22.63;65.68
39363;BME280;25088;43.238;23.110;2022-09-09T01:34:04;96409.19;;;22.70;66.33
39363;BME280;25088;43.238;23.110;2022-09-09T01:36:39;96426.59;;;22.59;66.91
39363;BME280;25088;43.238;23.110;2022-09-09T01:39:08;96431.47;;;22.62;64.65
39363;BME280;25088;43.238;23.110;2022-09-09T01:41:34;96427.59;;;22.54;65.15
39363;BME280;25088;43.238;23.110;2022-09-09T01:44:00;96415.59;;;22.62;64.77
39363;BME280;25088;43.238;23.110;2022-09-09T01:46:27;96413.19;;;22.82;65.95
39363;BME280;25088;43.238;23.110;2022-09-09T01:48:55;96417.72;;;22.65;67.15
39363;BME280;25088;43.238;23.110;2022-09-09T01:51:21;96424.28;;;22.61;65.29
39363;BME280;25088;43.238;23.110;2022-09-09T01:53:47;96423.13;;;22.62;66.29
39363;BME280;25088;43.238;23.110;2022-09-09T01:59:11;96423.13;;;22.62;67.58
39363;BME280;25088;43.238;23.110;2022-09-09T02:04:31;96422.00;;;22.63;65.91
39363;BME280;25088;43.238;23.110;2022-09-09T02:07:01;96418.34;;;22.41;69.06
39363;BME280;25088;43.238;23.110;2022-09-09T02:09:30;96407.75;;;22.35;67.60
39363;BME280;25088;43.238;23.110;2022-09-09T02:12:14;96416.44;;;22.33;67.03
39363;BME280;25088;43.238;23.110;2022-09-09T02:14:47;96429.69;;;22.28;67.04
39363;BME280;25088;43.238;23.110;2022-09-09T02:17:19;96434.47;;;22.18;68.97
39363;BME280;25088;43.238;23.110;2022-09-09T02:19:51;96417.16;;;22.04;69.32
39363;BME280;25088;43.238;23.110;2022-09-09T02:22:21;96434.16;;;22.03;69.99
39363;BME280;25088;43.238;23.110;2022-09-09T02:24:49;96433.88;;;21.96;68.84
39363;BME280;25088;43.238;23.110;2022-09-09T02:27:18;96433.03;;;22.04;68.09
39363;BME280;25088;43.238;23.110;2022-09-09T02:29:44;96422.59;;;21.92;68.62
39363;BME280;25088;43.238;23.110;2022-09-09T02:32:14;96427.03;;;21.84;69.35
39363;BME280;25088;43.238;23.110;2022-09-09T02:34:56;96435.22;;;21.81;71.17
39363;BME280;25088;43.238;23.110;2022-09-09T02:37:28;96413.97;;;21.67;70.27
39363;BME280;25088;43.238;23.110;2022-09-09T02:39:57;96437.00;;;21.77;71.44
39363;BME280;25088;43.238;23.110;2022-09-09T02:42:22;96448.94;;;21.77;71.02
39363;BME280;25088;43.238;23.110;2022-09-09T02:44:49;96450.56;;;21.87;70.73
39363;BME280;25088;43.238;23.110;2022-09-09T02:47:30;96445.97;;;21.91;71.00
39363;BME280;25088;43.238;23.110;2022-09-09T02:52:42;96432.94;;;21.74;72.14
39363;BME280;25088;43.238;23.110;2022-09-09T02:55:18;96431.63;;;21.80;71.24
39363;BME280;25088;43.238;23.110;2022-09-09T02:57:47;96437.81;;;21.77;71.01
39363;BME280;25088;43.238;23.110;2022-09-09T03:00:14;96443.88;;;21.79;71.96
39363;BME280;25088;43.238;23.110;2022-09-09T03:02:40;96424.25;;;21.84;71.79
39363;BME280;25088;43.238;23.110;2022-09-09T03:05:07;96432.41;;;21.89;71.16
39363;BME280;25088;43.238;23.110;2022-09-09T03:07:33;96436.81;;;21.90;71.19
39363;BME280;25088;43.238;23.110;2022-09-09T03:09:58;96440.44;;;21.82;73.85
39363;BME280;25088;43.238;23.110;2022-09-09T03:12:24;96432.78;;;21.71;71.58
39363;BME280;25088;43.238;23.110;2022-09-09T03:14:49;96442.56;;;21.77;72.37
39363;BME280;25088;43.238;23.110;2022-09-09T03:17:15;96457.78;;;21.71;73.56
39363;BME280;25088;43.238;23.110;2022-09-09T03:19:40;96449.44;;;21.62;74.42
39363;BME280;25088;43.238;23.110;2022-09-09T03:22:09;96459.94;;;21.30;74.65
39363;BME280;25088;43.238;23.110;2022-09-09T03:24:34;96451.56;;;21.22;76.47
39363;BME280;25088;43.238;23.110;2022-09-09T03:27:00;96454.56;;;21.34;75.43
39363;BME280;25088;43.238;23.110;2022-09-09T03:29:25;96450.41;;;21.23;75.92
39363;BME280;25088;43.238;23.110;2022-09-09T03:31:51;96448.47;;;21.06;77.09
39363;BME280;25088;43.238;23.110;2022-09-09T03:34:16;96443.53;;;21.03;76.93
39363;BME280;25088;43.238;23.110;2022-09-09T03:36:42;96430.00;;;21.01;75.93
39363;BME280;25088;43.238;23.110;2022-09-09T03:39:09;96416.78;;;21.07;74.38
39363;BME280;25088;43.238;23.110;2022-09-09T03:41:38;96431.34;;;21.38;73.74
39363;BME280;25088;43.238;23.110;2022-09-09T03:44:04;96425.78;;;21.47;73.61
39363;BME280;25088;43.238;23.110;2022-09-09T03:46:29;96444.56;;;21.59;73.19
39363;BME280;25088;43.238;23.110;2022-09-09T03:48:55;96455.84;;;21.54;74.36
39363;BME280;25088;43.238;23.110;2022-09-09T03:51:21;96448.03;;;21.38;74.94
39363;BME280;25088;43.238;23.110;2022-09-09T03:53:47;96454.22;;;21.44;74.38
39363;BME280;25088;43.238;23.110;2022-09-09T03:56:13;96439.66;;;21.47;73.88
39363;BME280;25088;43.238;23.110;2022-09-09T03:58:38;96444.88;;;21.57;72.24
39363;BME280;25088;43.238;23.110;2022-09-09T04:01:07;96443.06;;;21.79;69.06
39363;BME280;25088;43.238;23.110;2022-09-09T04:03:34;96448.75;;;21.82;72.00
39363;BME280;25088;43.238;23.110;2022-09-09T04:06:00;96452.03;;;21.84;70.93
39363;BME280;25088;43.238;23.110;2022-09-09T04:08:27;96436.00;;;21.90;69.49
39363;BME280;25088;43.238;23.110;2022-09-09T04:10:53;96449.19;;;22.10;70.49
39363;BME280;25088;43.238;23.110;2022-09-09T04:13:23;96452.63;;;22.07;71.47
39363;BME280;25088;43.238;23.110;2022-09-09T04:15:51;96447.41;;;22.06;71.95
39363;BME280;25088;43.238;23.110;2022-09-09T04:18:17;96450.66;;;22.08;70.45
39363;BME280;25088;43.238;23.110;2022-09-09T04:20:43;96455.56;;;22.19;69.62
39363;BME280;25088;43.238;23.110;2022-09-09T04:23:08;96470.81;;;22.13;69.42
39363;BME280;25088;43.238;23.110;2022-09-09T04:25:34;96470.28;;;22.20;68.85
39363;BME280;25088;43.238;23.110;2022-09-09T04:27:59;96474.53;;;22.26;69.62
39363;BME280;25088;43.238;23.110;2022-09-09T04:30:25;96466.50;;;22.25;69.99
39363;BME280;25088;43.238;23.110;2022-09-09T04:32:52;96470.50;;;21.89;71.98
39363;BME280;25088;43.238;23.110;2022-09-09T04:35:18;96459.63;;;22.22;71.37
39363;BME280;25088;43.238;23.110;2022-09-09T04:37:45;96451.81;;;22.15;72.30
39363;BME280;25088;43.238;23.110;2022-09-09T04:40:11;96455.72;;;22.23;71.05
39363;BME280;25088;43.238;23.110;2022-09-09T04:42:36;96448.53;;;22.22;70.25
39363;BME280;25088;43.238;23.110;2022-09-09T04:45:03;96456.47;;;22.41;69.54
39363;BME280;25088;43.238;23.110;2022-09-09T04:47:28;96426.38;;;22.43;71.05
39363;BME280;25088;43.238;23.110;2022-09-09T04:49:54;96446.91;;;22.59;68.76
39363;BME280;25088;43.238;23.110;2022-09-09T04:52:20;96449.56;;;22.77;69.12
39363;BME280;25088;43.238;23.110;2022-09-09T04:54:46;96445.41;;;22.91;70.21
39363;BME280;25088;43.238;23.110;2022-09-09T04:57:12;96442.72;;;23.04;67.99
39363;BME280;25088;43.238;23.110;2022-09-09T04:59:37;96438.31;;;23.24;68.27
39363;BME280;25088;43.238;23.110;2022-09-09T05:02:04;96430.84;;;23.57;67.75
39363;BME280;25088;43.238;23.110;2022-09-09T05:04:30;96446.38;;;23.79;64.10
39363;BME280;25088;43.238;23.110;2022-09-09T05:06:55;96443.06;;;23.98;64.05
39363;BME280;25088;43.238;23.110;2022-09-09T05:09:21;96443.34;;;24.17;62.95
39363;BME280;25088;43.238;23.110;2022-09-09T05:11:46;96442.47;;;24.50;63.05
39363;BME280;25088;43.238;23.110;2022-09-09T05:14:12;96439.59;;;24.83;63.76
39363;BME280;25088;43.238;23.110;2022-09-09T05:16:37;96446.91;;;25.12;63.72
39363;BME280;25088;43.238;23.110;2022-09-09T05:19:03;96430.59;;;25.14;62.02
39363;BME280;25088;43.238;23.110;2022-09-09T05:21:29;96458.69;;;25.46;61.09
39363;BME280;25088;43.238;23.110;2022-09-09T05:23:56;96455.69;;;25.39;59.70
39363;BME280;25088;43.238;23.110;2022-09-09T05:26:22;96459.34;;;25.27;62.16
39363;BME280;25088;43.238;23.110;2022-09-09T05:28:49;96456.44;;;25.23;60.60
39363;BME280;25088;43.238;23.110;2022-09-09T05:31:16;96458.50;;;25.39;60.67
39363;BME280;25088;43.238;23.110;2022-09-09T05:33:44;96451.47;;;25.57;60.21
39363;BME280;25088;43.238;23.110;2022-09-09T05:36:13;96444.06;;;25.65;60.67
39363;BME280;25088;43.238;23.110;2022-09-09T05:38:39;96431.13;;;25.72;57.62
39363;BME280;25088;43.238;23.110;2022-09-09T05:41:06;96449.19;;;26.03;60.61
39363;BME280;25088;43.238;23.110;2022-09-09T05:43:32;96441.97;;;26.18;60.89
39363;BME280;25088;43.238;23.110;2022-09-09T05:46:01;96442.47;;;26.36;61.07
39363;BME280;25088;43.238;23.110;2022-09-09T05:48:29;96448.59;;;26.41;59.77
39363;BME280;25088;43.238;23.110;2022-09-09T05:50:55;96450.50;;;26.37;59.85
39363;BME280;25088;43.238;23.110;2022-09-09T05:53:20;96444.47;;;26.67;60.85
39363;BME280;25088;43.238;23.110;2022-09-09T05:55:49;96438.13;;;26.86;60.31
39363;BME280;25088;43.238;23.110;2022-09-09T05:58:15;96436.81;;;27.15;55.53
39363;BME280;25088;43.238;23.110;2022-09-09T06:00:42;96446.63;;;27.40;56.07
39363;BME280;25088;43.238;23.110;2022-09-09T06:03:11;96440.06;;;27.52;53.85
39363;BME280;25088;43.238;23.110;2022-09-09T06:05:37;96436.81;;;27.69;51.67
39363;BME280;25088;43.238;23.110;2022-09-09T06:08:03;96455.25;;;28.09;51.68
39363;BME280;25088;43.238;23.110;2022-09-09T06:10:28;96457.53;;;28.23;51.53
39363;BME280;25088;43.238;23.110;2022-09-09T06:12:54;96461.53;;;28.41;50.42
39363;BME280;25088;43.238;23.110;2022-09-09T06:15:19;96451.78;;;28.58;49.40
39363;BME280;25088;43.238;23.110;2022-09-09T06:17:45;96455.41;;;28.81;50.73
39363;BME280;25088;43.238;23.110;2022-09-09T06:20:10;96450.31;;;28.91;49.05
39363;BME280;25088;43.238;23.110;2022-09-09T06:22:36;96461.03;;;29.04;47.70
39363;BME280;25088;43.238;23.110;2022-09-09T06:25:01;96456.31;;;29.12;45.46
39363;BME280;25088;43.238;23.110;2022-09-09T06:27:27;96452.41;;;29.20;44.38
39363;BME280;25088;43.238;23.110;2022-09-09T06:29:53;96448.94;;;29.30;44.61
39363;BME280;25088;43.238;23.110;2022-09-09T06:32:19;96444.09;;;29.54;44.78
39363;BME280;25088;43.238;23.110;2022-09-09T06:34:44;96441.97;;;29.77;45.58
39363;BME280;25088;43.238;23.110;2022-09-09T06:37:10;96433.78;;;29.99;45.94
39363;BME280;25088;43.238;23.110;2022-09-09T06:39:36;96436.69;;;30.06;45.98
39363;BME280;25088;43.238;23.110;2022-09-09T06:42:01;96442.66;;;30.38;46.41
39363;BME280;25088;43.238;23.110;2022-09-09T06:44:27;96439.63;;;30.57;45.29
39363;BME280;25088;43.238;23.110;2022-09-09T06:46:53;96431.19;;;30.57;44.89
39363;BME280;25088;43.238;23.110;2022-09-09T06:49:18;96431.13;;;30.50;45.15
39363;BME280;25088;43.238;23.110;2022-09-09T06:51:44;96429.03;;;30.40;44.48
39363;BME280;25088;43.238;23.110;2022-09-09T06:54:11;96437.13;;;30.45;45.50
39363;BME280;25088;43.238;23.110;2022-09-09T06:56:38;96442.59;;;30.31;45.58
39363;BME280;25088;43.238;23.110;2022-09-09T06:59:06;96442.56;;;30.27;47.36
39363;BME280;25088;43.238;23.110;2022-09-09T07:01:41;96457.91;;;30.30;47.52
39363;BME280;25088;43.238;23.110;2022-09-09T07:04:09;96447.34;;;30.23;47.61
39363;BME280;25088;43.238;23.110;2022-09-09T07:06:38;96457.03;;;30.26;48.26
39363;BME280;25088;43.238;23.110;2022-09-09T07:09:08;96448.19;;;30.24;48.79
39363;BME280;25088;43.238;23.110;2022-09-09T07:11:42;96457.38;;;30.21;47.62
39363;BME280;25088;43.238;23.110;2022-09-09T07:14:08;96432.25;;;30.05;47.80
39363;BME280;25088;43.238;23.110;2022-09-09T07:16:34;96456.53;;;30.17;47.27
39363;BME280;25088;43.238;23.110;2022-09-09T07:19:03;96437.88;;;30.05;49.17
39363;BME280;25088;43.238;23.110;2022-09-09T07:21:30;96448.34;;;30.04;48.97
39363;BME280;25088;43.238;23.110;2022-09-09T07:23:56;96436.16;;;29.97;49.21
39363;BME280;25088;43.238;23.110;2022-09-09T07:26:24;96458.78;;;30.04;49.87
39363;BME280;25088;43.238;23.110;2022-09-09T07:28:50;96450.28;;;30.00;49.44
39363;BME280;25088;43.238;23.110;2022-09-09T07:31:21;96459.88;;;29.96;49.59
39363;BME280;25088;43.238;23.110;2022-09-09T07:33:47;96452.53;;;29.84;48.84
39363;BME280;25088;43.238;23.110;2022-09-09T07:36:22;96464.19;;;29.86;48.07
39363;BME280;25088;43.238;23.110;2022-09-09T07:38:53;96462.00;;;29.72;47.92
39363;BME280;25088;43.238;23.110;2022-09-09T07:41:31;96472.78;;;29.67;49.04
39363;BME280;25088;43.238;23.110;2022-09-09T07:44:03;96484.84;;;29.67;47.93
39363;BME280;25088;43.238;23.110;2022-09-09T07:46:28;96470.50;;;29.76;47.92
39363;BME280;25088;43.238;23.110;2022-09-09T07:48:56;96457.03;;;29.62;48.99
39363;BME280;25088;43.238;23.110;2022-09-09T07:51:25;96487.44;;;29.79;50.24
39363;BME280;25088;43.238;23.110;2022-09-09T07:53:54;96484.63;;;29.79;51.54
39363;BME280;25088;43.238;23.110;2022-09-09T07:56:20;96485.44;;;29.83;51.60
39363;BME280;25088;43.238;23.110;2022-09-09T07:58:49;96487.34;;;30.06;51.88
39363;BME280;25088;43.238;23.110;2022-09-09T08:01:21;96480.03;;;30.31;50.42
39363;BME280;25088;43.238;23.110;2022-09-09T08:03:53;96485.38;;;30.40;49.79
39363;BME280;25088;43.238;23.110;2022-09-09T08:06:19;96488.81;;;30.26;49.33
39363;BME280;25088;43.238;23.110;2022-09-09T08:08:50;96486.22;;;30.44;48.13
39363;BME280;25088;43.238;23.110;2022-09-09T08:11:16;96477.56;;;30.67;47.25
39363;BME280;25088;43.238;23.110;2022-09-09T08:13:42;96473.34;;;30.84;47.05
39363;BME280;25088;43.238;23.110;2022-09-09T08:16:27;96478.38;;;31.08;45.57
39363;BME280;25088;43.238;23.110;2022-09-09T08:18:53;96476.16;;;31.35;45.51
39363;BME280;25088;43.238;23.110;2022-09-09T08:21:24;96481.91;;;31.50;45.09
39363;BME280;25088;43.238;23.110;2022-09-09T08:23:53;96471.56;;;31.75;44.74
39363;BME280;25088;43.238;23.110;2022-09-09T08:26:27;96475.69;;;31.85;44.40
39363;BME280;25088;43.238;23.110;2022-09-09T08:28:55;96476.94;;;31.95;42.26
39363;BME280;25088;43.238;23.110;2022-09-09T08:31:26;96474.50;;;31.97;41.62
39363;BME280;25088;43.238;23.110;2022-09-09T08:33:53;96476.50;;;31.92;42.21
39363;BME280;25088;43.238;23.110;2022-09-09T08:36:22;96476.13;;;31.94;42.46
39363;BME280;25088;43.238;23.110;2022-09-09T08:38:50;96462.88;;;32.09;41.88
39363;BME280;25088;43.238;23.110;2022-09-09T08:43:49;96465.25;;;32.00;43.57
39363;BME280;25088;43.238;23.110;2022-09-09T08:46:21;96477.34;;;31.93;44.76
39363;BME280;25088;43.238;23.110;2022-09-09T08:48:59;96476.75;;;31.66;44.64
39363;BME280;25088;43.238;23.110;2022-09-09T08:51:29;96479.97;;;31.64;45.04
39363;BME280;25088;43.238;23.110;2022-09-09T08:53:58;96472.13;;;31.33;45.27
39363;BME280;25088;43.238;23.110;2022-09-09T08:56:27;96466.38;;;31.22;46.65
39363;BME280;25088;43.238;23.110;2022-09-09T08:58:56;96476.84;;;31.18;47.29
39363;BME280;25088;43.238;23.110;2022-09-09T09:15:18;96497.69;;;30.28;48.47
39363;BME280;25088;43.238;23.110;2022-09-09T09:17:45;96489.78;;;30.07;49.50
39363;BME280;25088;43.238;23.110;2022-09-09T09:20:19;96467.34;;;29.81;49.98
39363;BME280;25088;43.238;23.110;2022-09-09T09:22:51;96488.78;;;29.89;50.07
39363;BME280;25088;43.238;23.110;2022-09-09T09:25:19;96500.88;;;29.63;50.33
39363;BME280;25088;43.238;23.110;2022-09-09T09:27:58;96496.44;;;29.35;52.85
39363;BME280;25088;43.238;23.110;2022-09-09T09:30:29;96499.56;;;29.30;54.79
39363;BME280;25088;43.238;23.110;2022-09-09T09:33:21;96490.41;;;29.37;55.05
39363;BME280;25088;43.238;23.110;2022-09-09T09:35:50;96478.59;;;29.24;54.78
39363;BME280;25088;43.238;23.110;2022-09-09T09:38:24;96491.22;;;29.38;54.62
39363;BME280;25088;43.238;23.110;2022-09-09T09:40:53;96501.00;;;29.47;53.85
39363;BME280;25088;43.238;23.110;2022-09-09T09:45:58;96495.97;;;29.07;55.50
39363;BME280;25088;43.238;23.110;2022-09-09T09:48:25;96510.34;;;29.02;55.21
39363;BME280;25088;43.238;23.110;2022-09-09T09:53:26;96517.97;;;29.01;54.32
39363;BME280;25088;43.238;23.110;2022-09-09T09:55:56;96509.97;;;28.80;54.53
39363;BME280;25088;43.238;23.110;2022-09-09T09:58:23;96498.59;;;28.73;53.92
39363;BME280;25088;43.238;23.110;2022-09-09T10:00:52;96512.28;;;28.75;54.46
39363;BME280;25088;43.238;23.110;2022-09-09T10:05:53;96516.53;;;28.65;56.19
39363;BME280;25088;43.238;23.110;2022-09-09T10:08:19;96525.69;;;28.62;56.23
39363;BME280;25088;43.238;23.110;2022-09-09T10:16:51;96527.03;;;28.49;59.59
39363;BME280;25088;43.238;23.110;2022-09-09T10:19:33;96541.84;;;28.26;64.42
39363;BME280;25088;43.238;23.110;2022-09-09T10:22:37;96524.81;;;28.19;64.10
39363;BME280;25088;43.238;23.110;2022-09-09T10:25:30;96537.72;;;28.20;61.86
39363;BME280;25088;43.238;23.110;2022-09-09T10:33:32;96538.88;;;28.19;62.99
39363;BME280;25088;43.238;23.110;2022-09-09T10:36:13;96536.22;;;28.07;62.89
39363;BME280;25088;43.238;23.110;2022-09-09T10:38:48;96521.53;;;27.75;57.76
39363;BME280;25088;43.238;23.110;2022-09-09T10:44:30;96548.94;;;27.50;52.37
39363;BME280;25088;43.238;23.110;2022-09-09T10:47:24;96539.22;;;27.44;49.11
39363;BME280;25088;43.238;23.110;2022-09-09T10:55:48;96508.34;;;26.93;49.44
39363;BME280;25088;43.238;23.110;2022-09-09T10:58:35;96525.41;;;26.88;50.19
39363;BME280;25088;43.238;23.110;2022-09-09T11:01:15;96523.63;;;27.11;50.43
39363;BME280;25088;43.238;23.110;2022-09-09T11:03:43;96483.41;;;26.72;50.16
39363;BME280;25088;43.238;23.110;2022-09-09T11:06:19;96457.81;;;26.89;50.40
39363;BME280;25088;43.238;23.110;2022-09-09T11:08:46;96499.75;;;27.52;49.36
39363;BME280;25088;43.238;23.110;2022-09-09T11:11:17;96505.22;;;27.80;50.08
39363;BME280;25088;43.238;23.110;2022-09-09T11:13:51;96496.25;;;28.14;50.37
39363;BME280;25088;43.238;23.110;2022-09-09T11:19:01;96465.94;;;28.00;56.85
39363;BME280;25088;43.238;23.110;2022-09-09T11:21:37;96501.53;;;28.35;57.02
39363;BME280;25088;43.238;23.110;2022-09-09T11:24:20;96489.53;;;28.38;56.29
39363;BME280;25088;43.238;23.110;2022-09-09T11:30:12;96477.06;;;28.58;56.18
39363;BME280;25088;43.238;23.110;2022-09-09T11:38:44;96464.59;;;28.55;56.27
39363;BME280;25088;43.238;23.110;2022-09-09T11:41:10;96452.22;;;28.37;56.27
39363;BME280;25088;43.238;23.110;2022-09-09T11:43:47;96456.72;;;28.42;56.40
39363;BME280;25088;43.238;23.110;2022-09-09T11:46:15;96438.34;;;28.25;56.32
39363;BME280;25088;43.238;23.110;2022-09-09T11:48:44;96441.06;;;28.21;56.70
39363;BME280;25088;43.238;23.110;2022-09-09T11:56:44;96433.50;;;28.02;58.28
39363;BME280;25088;43.238;23.110;2022-09-09T11:59:26;96430.78;;;27.87;59.20
39363;BME280;25088;43.238;23.110;2022-09-09T12:02:11;96434.75;;;28.05;58.71
39363;BME280;25088;43.238;23.110;2022-09-09T12:04:40;96435.72;;;27.93;57.97
39363;BME280;25088;43.238;23.110;2022-09-09T12:14:53;96421.03;;;28.65;57.52
39363;BME280;25088;43.238;23.110;2022-09-09T12:17:20;96408.59;;;28.66;56.77
39363;BME280;25088;43.238;23.110;2022-09-09T12:19:46;96404.41;;;28.79;53.81
39363;BME280;25088;43.238;23.110;2022-09-09T12:27:43;96404.91;;;29.72;50.34
39363;BME280;25088;43.238;23.110;2022-09-09T12:30:14;96399.53;;;29.93;48.78
39363;BME280;25088;43.238;23.110;2022-09-09T12:32:40;96416.28;;;29.22;53.02
39363;BME280;25088;43.238;23.110;2022-09-09T12:40:23;96388.56;;;29.51;52.67
39363;BME280;25088;43.238;23.110;2022-09-09T12:42:49;96405.56;;;29.92;52.14
39363;BME280;25088;43.238;23.110;2022-09-09T12:45:18;96403.13;;;30.27;50.53
39363;BME280;25088;43.238;23.110;2022-09-09T12:50:25;96384.28;;;31.34;48.74
39363;BME280;25088;43.238;23.110;2022-09-09T12:52:54;96392.38;;;31.39;47.41
39363;BME280;25088;43.238;23.110;2022-09-09T12:55:28;96375.13;;;31.59;48.01
39363;BME280;25088;43.238;23.110;2022-09-09T12:57:56;96386.97;;;31.93;46.95
39363;BME280;25088;43.238;23.110;2022-09-09T13:00:24;96390.69;;;32.29;46.95
39363;BME280;25088;43.238;23.110;2022-09-09T13:05:18;96382.56;;;32.03;47.31
39363;BME280;25088;43.238;23.110;2022-09-09T13:07:45;96380.53;;;31.20;49.38
39363;BME280;25088;43.238;23.110;2022-09-09T13:10:13;96396.13;;;31.03;50.36
39363;BME280;25088;43.238;23.110;2022-09-09T13:12:40;96387.00;;;30.65;50.30
39363;BME280;25088;43.238;23.110;2022-09-09T13:15:17;96389.94;;;30.35;51.40
39363;BME280;25088;43.238;23.110;2022-09-09T13:17:56;96385.81;;;29.88;52.86
39363;BME280;25088;43.238;23.110;2022-09-09T13:20:23;96381.66;;;29.78;53.08
39363;BME280;25088;43.238;23.110;2022-09-09T13:22:50;96396.81;;;29.67;53.73
39363;BME280;25088;43.238;23.110;2022-09-09T13:28:01;96387.84;;;29.57;52.47
39363;BME280;25088;43.238;23.110;2022-09-09T13:30:33;96380.47;;;29.46;53.81
39363;BME280;25088;43.238;23.110;2022-09-09T13:35:57;96363.78;;;29.60;52.96
39363;BME280;25088;43.238;23.110;2022-09-09T13:38:24;96374.88;;;29.49;53.69
39363;BME280;25088;43.238;23.110;2022-09-09T13:40:55;96374.97;;;29.26;54.44
39363;BME280;25088;43.238;23.110;2022-09-09T13:43:24;96372.41;;;29.14;55.15
39363;BME280;25088;43.238;23.110;2022-09-09T13:46:06;96371.16;;;29.12;54.44
39363;BME280;25088;43.238;23.110;2022-09-09T13:48:55;96378.84;;;29.15;53.70
39363;BME280;25088;43.238;23.110;2022-09-09T13:51:29;96357.50;;;29.10;54.17
39363;BME280;25088;43.238;23.110;2022-09-09T13:53:55;96371.69;;;29.21;54.80
39363;BME280;25088;43.238;23.110;2022-09-09T13:56:23;96376.53;;;29.24;54.00
39363;BME280;25088;43.238;23.110;2022-09-09T13:58:48;96368.94;;;29.24;53.28
39363;BME280;25088;43.238;23.110;2022-09-09T14:01:14;96360.13;;;29.26;53.46
39363;BME280;25088;43.238;23.110;2022-09-09T14:03:39;96355.56;;;29.14;54.09
39363;BME280;25088;43.238;23.110;2022-09-09T14:06:05;96366.81;;;29.18;54.90
39363;BME280;25088;43.238;23.110;2022-09-09T14:08:32;96367.50;;;29.07;55.00
39363;BME280;25088;43.238;23.110;2022-09-09T14:11:03;96364.19;;;29.02;55.81
39363;BME280;25088;43.238;23.110;2022-09-09T14:13:29;96370.34;;;29.11;56.27
39363;BME280;25088;43.238;23.110;2022-09-09T14:15:54;96378.25;;;29.02;56.64
39363;BME280;25088;43.238;23.110;2022-09-09T14:18:20;96373.34;;;28.95;57.21
39363;BME280;25088;43.238;23.110;2022-09-09T14:20:47;96371.63;;;28.91;57.70
39363;BME280;25088;43.238;23.110;2022-09-09T14:23:13;96364.41;;;28.90;57.71
39363;BME280;25088;43.238;23.110;2022-09-09T14:25:40;96358.25;;;28.80;57.85
39363;BME280;25088;43.238;23.110;2022-09-09T14:28:11;96349.59;;;28.93;57.60
39363;BME280;25088;43.238;23.110;2022-09-09T14:30:39;96354.88;;;29.24;56.66
39363;BME280;25088;43.238;23.110;2022-09-09T14:33:06;96359.00;;;29.04;56.50
39363;BME280;25088;43.238;23.110;2022-09-09T14:35:31;96364.44;;;28.93;57.46
39363;BME280;25088;43.238;23.110;2022-09-09T14:37:58;96355.75;;;28.75;57.60
39363;BME280;25088;43.238;23.110;2022-09-09T14:40:26;96356.81;;;28.67;58.64
39363;BME280;25088;43.238;23.110;2022-09-09T14:42:52;96372.56;;;28.49;59.52
39363;BME280;25088;43.238;23.110;2022-09-09T14:45:18;96362.13;;;28.46;59.48
39363;BME280;25088;43.238;23.110;2022-09-09T14:47:44;96359.06;;;28.54;58.83
39363;BME280;25088;43.238;23.110;2022-09-09T14:50:10;96372.81;;;28.63;59.13
39363;BME280;25088;43.238;23.110;2022-09-09T14:52:37;96368.19;;;28.74;58.65
39363;BME280;25088;43.238;23.110;2022-09-09T14:55:03;96346.13;;;28.76;58.76
39363;BME280;25088;43.238;23.110;2022-09-09T14:57:29;96365.16;;;29.43;57.80
39363;BME280;25088;43.238;23.110;2022-09-09T14:59:55;96358.47;;;29.88;55.66
39363;BME280;25088;43.238;23.110;2022-09-09T15:02:22;96368.44;;;29.49;56.14
39363;BME280;25088;43.238;23.110;2022-09-09T15:04:47;96356.56;;;29.59;56.80
39363;BME280;25088;43.238;23.110;2022-09-09T15:07:15;96358.06;;;30.27;54.10
39363;BME280;25088;43.238;23.110;2022-09-09T15:09:42;96363.00;;;30.37;53.15